sensor_id;sensor_type;location;lat;lon;timestamp;temperature;humidity
16974;DHT22;8603;46.944;7.412;2023-10-19T00:00:46;11.30;99.90
16974;DHT22;8603;46.944;7.412;2023-10-19T00:03:15;11.20;99.90
16974;DHT22;8603;46.944;7.412;2023-10-19T00:05:41;11.20;99.90
16974;DHT22;8603;46.944;7.412;2023-10-19T00:08:37;11.20;99.90
16974;DHT22;8603;46.944;7.412;2023-10-19T00:11:35;11.30;99.90
16974;DHT22;8603;46.944;7.412;2023-10-19T00:14:07;11.30;99.90
16974;DHT22;8603;46.944;7.412;2023-10-19T01:11:34;11.20;99.90
16974;DHT22;8603;46.944;7.412;2023-10-19T01:24:48;11.30;99.90
16974;DHT22;8603;46.944;7.412;2023-10-19T01:27:44;11.30;99.90
16974;DHT22;8603;46.944;7.412;2023-10-19T01:55:53;11.30;99.90
16974;DHT22;8603;46.944;7.412;2023-10-19T02:17:25;11.40;99.90
16974;DHT22;8603;46.944;7.412;2023-10-19T02:47:23;11.30;99.90
16974;DHT22;8603;46.944;7.412;2023-10-19T02:49:57;11.30;99.90
16974;DHT22;8603;46.944;7.412;2023-10-19T02:52:55;11.30;99.90
16974;DHT22;8603;46.944;7.412;2023-10-19T02:55:27;11.40;99.90
16974;DHT22;8603;46.944;7.412;2023-10-19T02:57:53;11.30;99.90
16974;DHT22;8603;46.944;7.412;2023-10-19T03:00:21;11.30;99.90
16974;DHT22;8603;46.944;7.412;2023-10-19T03:02:48;11.30;99.90
16974;DHT22;8603;46.944;7.412;2023-10-19T03:05:14;11.40;99.90
16974;DHT22;8603;46.944;7.412;2023-10-19T03:07:41;11.40;99.90
16974;DHT22;8603;46.944;7.412;2023-10-19T03:10:10;11.40;99.90
16974;DHT22;8603;46.944;7.412;2023-10-19T03:12:55;11.40;99.90
16974;DHT22;8603;46.944;7.412;2023-10-19T03:15:31;11.40;99.90
16974;DHT22;8603;46.944;7.412;2023-10-19T03:18:21;11.40;99.90
16974;DHT22;8603;46.944;7.412;2023-10-19T03:21:07;11.40;99.90
16974;DHT22;8603;46.944;7.412;2023-10-19T03:26:45;11.40;99.90
16974;DHT22;8603;46.944;7.412;2023-10-19T03:29:42;11.40;99.90
16974;DHT22;8603;46.944;7.412;2023-10-19T03:32:24;11.30;99.90
16974;DHT22;8603;46.944;7.412;2023-10-19T03:35:14;11.30;99.90
16974;DHT22;8603;46.944;7.412;2023-10-19T03:38:15;11.30;99.90
16974;DHT22;8603;46.944;7.412;2023-10-19T03:40:59;11.20;99.90
16974;DHT22;8603;46.944;7.412;2023-10-19T03:43:46;11.20;99.90
16974;DHT22;8603;46.944;7.412;2023-10-19T03:46:21;11.20;99.90
16974;DHT22;8603;46.944;7.412;2023-10-19T03:48:57;11.20;99.90
16974;DHT22;8603;46.944;7.412;2023-10-19T03:51:39;11.20;99.90
16974;DHT22;8603;46.944;7.412;2023-10-19T03:54:09;11.20;99.90
16974;DHT22;8603;46.944;7.412;2023-10-19T03:56:57;11.20;99.90
16974;DHT22;8603;46.944;7.412;2023-10-19T03:59:27;11.20;99.90
16974;DHT22;8603;46.944;7.412;2023-10-19T04:01:59;11.10;99.90
16974;DHT22;8603;46.944;7.412;2023-10-19T04:04:26;11.10;99.90
16974;DHT22;8603;46.944;7.412;2023-10-19T04:06:55;11.20;99.90
16974;DHT22;8603;46.944;7.412;2023-10-19T04:09:24;11.10;99.90
16974;DHT22;8603;46.944;7.412;2023-10-19T04:11:56;11.20;99.90
16974;DHT22;8603;46.944;7.412;2023-10-19T04:14:22;11.20;99.90
16974;DHT22;8603;46.944;7.412;2023-10-19T04:16:48;11.20;99.90
16974;DHT22;8603;46.944;7.412;2023-10-19T04:19:15;11.20;99.90
16974;DHT22;8603;46.944;7.412;2023-10-19T04:21:46;11.10;99.90
16974;DHT22;8603;46.944;7.412;2023-10-19T04:24:32;11.20;99.90
16974;DHT22;8603;46.944;7.412;2023-10-19T04:27:00;11.20;99.90
16974;DHT22;8603;46.944;7.412;2023-10-19T04:29:26;11.20;99.90
16974;DHT22;8603;46.944;7.412;2023-10-19T04:31:53;11.20;99.90
16974;DHT22;8603;46.944;7.412;2023-10-19T04:34:22;11.10;99.90
16974;DHT22;8603;46.944;7.412;2023-10-19T04:36:50;11.20;99.90
16974;DHT22;8603;46.944;7.412;2023-10-19T04:39:16;11.20;99.90
16974;DHT22;8603;46.944;7.412;2023-10-19T04:41:45;11.10;99.90
16974;DHT22;8603;46.944;7.412;2023-10-19T04:44:11;11.10;99.90
16974;DHT22;8603;46.944;7.412;2023-10-19T04:46:37;11.10;99.90
16974;DHT22;8603;46.944;7.412;2023-10-19T04:49:03;11.20;99.90
16974;DHT22;8603;46.944;7.412;2023-10-19T04:51:49;11.20;99.90
16974;DHT22;8603;46.944;7.412;2023-10-19T04:54:15;11.20;99.90
16974;DHT22;8603;46.944;7.412;2023-10-19T04:56:40;11.20;99.90
16974;DHT22;8603;46.944;7.412;2023-10-19T04:59:06;11.20;99.90
16974;DHT22;8603;46.944;7.412;2023-10-19T05:01:34;11.30;99.90
16974;DHT22;8603;46.944;7.412;2023-10-19T05:04:00;11.30;99.90
16974;DHT22;8603;46.944;7.412;2023-10-19T05:06:26;11.20;99.90
16974;DHT22;8603;46.944;7.412;2023-10-19T05:08:52;11.20;99.90
16974;DHT22;8603;46.944;7.412;2023-10-19T05:11:18;11.20;99.90
16974;DHT22;8603;46.944;7.412;2023-10-19T05:13:43;11.20;99.90
16974;DHT22;8603;46.944;7.412;2023-10-19T05:16:09;11.20;99.90
16974;DHT22;8603;46.944;7.412;2023-10-19T05:18:35;11.30;99.90
16974;DHT22;8603;46.944;7.412;2023-10-19T05:21:00;11.20;99.90
16974;DHT22;8603;46.944;7.412;2023-10-19T05:23:27;11.30;99.90
16974;DHT22;8603;46.944;7.412;2023-10-19T05:26:03;11.30;99.90
16974;DHT22;8603;46.944;7.412;2023-10-19T05:28:30;11.20;99.90
16974;DHT22;8603;46.944;7.412;2023-10-19T05:30:56;11.30;99.90
16974;DHT22;8603;46.944;7.412;2023-10-19T05:33:22;11.20;99.90
16974;DHT22;8603;46.944;7.412;2023-10-19T05:35:50;11.30;99.90
16974;DHT22;8603;46.944;7.412;2023-10-19T05:38:19;11.30;99.90
16974;DHT22;8603;46.944;7.412;2023-10-19T05:40:45;11.30;99.90
16974;DHT22;8603;46.944;7.412;2023-10-19T05:43:11;11.30;99.90
16974;DHT22;8603;46.944;7.412;2023-10-19T05:45:38;11.30;99.90
16974;DHT22;8603;46.944;7.412;2023-10-19T05:48:04;11.30;99.90
16974;DHT22;8603;46.944;7.412;2023-10-19T05:50:35;11.30;99.90
16974;DHT22;8603;46.944;7.412;2023-10-19T05:53:03;11.40;99.90
16974;DHT22;8603;46.944;7.412;2023-10-19T05:55:35;11.30;99.90
16974;DHT22;8603;46.944;7.412;2023-10-19T05:58:02;11.30;99.90
16974;DHT22;8603;46.944;7.412;2023-10-19T06:00:30;11.30;99.90
16974;DHT22;8603;46.944;7.412;2023-10-19T06:02:56;11.30;99.90
16974;DHT22;8603;46.944;7.412;2023-10-19T06:05:23;11.30;99.90
16974;DHT22;8603;46.944;7.412;2023-10-19T06:07:50;11.30;99.90
16974;DHT22;8603;46.944;7.412;2023-10-19T06:10:20;11.40;99.90
16974;DHT22;8603;46.944;7.412;2023-10-19T06:12:49;11.40;99.90
16974;DHT22;8603;46.944;7.412;2023-10-19T06:15:16;11.40;99.90
16974;DHT22;8603;46.944;7.412;2023-10-19T06:17:43;11.40;99.90
16974;DHT22;8603;46.944;7.412;2023-10-19T06:20:10;11.40;99.90
16974;DHT22;8603;46.944;7.412;2023-10-19T06:23:06;11.40;99.90
16974;DHT22;8603;46.944;7.412;2023-10-19T06:25:33;11.40;99.90
16974;DHT22;8603;46.944;7.412;2023-10-19T06:28:02;11.40;99.90
16974;DHT22;8603;46.944;7.412;2023-10-19T06:30:28;11.50;99.90
16974;DHT22;8603;46.944;7.412;2023-10-19T06:32:55;11.40;99.90
16974;DHT22;8603;46.944;7.412;2023-10-19T06:35:23;11.60;99.90
16974;DHT22;8603;46.944;7.412;2023-10-19T06:38:10;11.50;99.90
16974;DHT22;8603;46.944;7.412;2023-10-19T06:41:30;11.60;99.90
16974;DHT22;8603;46.944;7.412;2023-10-19T06:43:49;11.50;99.90
16974;DHT22;8603;46.944;7.412;2023-10-19T06:46:18;11.50;99.90
16974;DHT22;8603;46.944;7.412;2023-10-19T06:48:44;11.60;99.90
16974;DHT22;8603;46.944;7.412;2023-10-19T06:51:10;11.60;99.90
16974;DHT22;8603;46.944;7.412;2023-10-19T06:53:37;11.60;99.90
16974;DHT22;8603;46.944;7.412;2023-10-19T06:56:06;11.60;99.90
16974;DHT22;8603;46.944;7.412;2023-10-19T06:58:32;11.70;99.90
16974;DHT22;8603;46.944;7.412;2023-10-19T07:00:58;11.60;99.90
16974;DHT22;8603;46.944;7.412;2023-10-19T07:03:30;11.70;99.90
16974;DHT22;8603;46.944;7.412;2023-10-19T07:05:56;11.80;99.90
16974;DHT22;8603;46.944;7.412;2023-10-19T07:08:23;11.90;99.90
16974;DHT22;8603;46.944;7.412;2023-10-19T07:10:58;11.80;99.90
16974;DHT22;8603;46.944;7.412;2023-10-19T07:13:26;11.90;99.90
16974;DHT22;8603;46.944;7.412;2023-10-19T07:15:52;11.90;99.90
16974;DHT22;8603;46.944;7.412;2023-10-19T07:18:21;11.90;99.90
16974;DHT22;8603;46.944;7.412;2023-10-19T07:20:53;11.90;99.90
16974;DHT22;8603;46.944;7.412;2023-10-19T07:23:26;11.90;99.90
16974;DHT22;8603;46.944;7.412;2023-10-19T07:25:54;12.00;99.90
16974;DHT22;8603;46.944;7.412;2023-10-19T07:28:22;12.00;99.90
16974;DHT22;8603;46.944;7.412;2023-10-19T07:30:48;12.10;99.90
16974;DHT22;8603;46.944;7.412;2023-10-19T07:33:14;12.20;99.90
16974;DHT22;8603;46.944;7.412;2023-10-19T07:35:44;12.30;99.90
16974;DHT22;8603;46.944;7.412;2023-10-19T07:38:13;12.30;99.90
16974;DHT22;8603;46.944;7.412;2023-10-19T07:40:39;12.40;99.90
16974;DHT22;8603;46.944;7.412;2023-10-19T07:43:05;12.50;99.90
16974;DHT22;8603;46.944;7.412;2023-10-19T07:45:32;12.50;99.90
16974;DHT22;8603;46.944;7.412;2023-10-19T07:48:00;12.60;99.90
16974;DHT22;8603;46.944;7.412;2023-10-19T07:50:39;12.60;99.90
16974;DHT22;8603;46.944;7.412;2023-10-19T07:53:08;12.60;99.90
16974;DHT22;8603;46.944;7.412;2023-10-19T07:55:34;12.70;99.90
16974;DHT22;8603;46.944;7.412;2023-10-19T07:58:01;12.60;99.90
16974;DHT22;8603;46.944;7.412;2023-10-19T08:00:29;12.60;99.90
16974;DHT22;8603;46.944;7.412;2023-10-19T08:02:59;12.70;99.90
16974;DHT22;8603;46.944;7.412;2023-10-19T08:05:25;12.80;99.90
16974;DHT22;8603;46.944;7.412;2023-10-19T08:07:51;12.90;99.90
16974;DHT22;8603;46.944;7.412;2023-10-19T08:10:19;13.10;99.90
16974;DHT22;8603;46.944;7.412;2023-10-19T08:12:46;13.30;99.90
16974;DHT22;8603;46.944;7.412;2023-10-19T08:15:16;13.40;99.90
16974;DHT22;8603;46.944;7.412;2023-10-19T08:17:43;13.60;99.90
16974;DHT22;8603;46.944;7.412;2023-10-19T08:20:11;13.80;99.90
16974;DHT22;8603;46.944;7.412;2023-10-19T08:22:54;13.90;99.90
16974;DHT22;8603;46.944;7.412;2023-10-19T08:25:22;14.10;99.90
16974;DHT22;8603;46.944;7.412;2023-10-19T08:27:49;14.20;99.90
16974;DHT22;8603;46.944;7.412;2023-10-19T08:30:22;14.30;99.90
16974;DHT22;8603;46.944;7.412;2023-10-19T08:32:48;14.40;99.90
16974;DHT22;8603;46.944;7.412;2023-10-19T08:35:19;14.70;99.90
16974;DHT22;8603;46.944;7.412;2023-10-19T08:37:49;14.90;99.90
16974;DHT22;8603;46.944;7.412;2023-10-19T08:40:15;15.20;99.90
16974;DHT22;8603;46.944;7.412;2023-10-19T08:42:42;15.40;99.90
16974;DHT22;8603;46.944;7.412;2023-10-19T08:45:09;15.60;99.90
16974;DHT22;8603;46.944;7.412;2023-10-19T08:47:43;15.70;99.90
16974;DHT22;8603;46.944;7.412;2023-10-19T08:50:13;15.80;99.90
16974;DHT22;8603;46.944;7.412;2023-10-19T08:52:41;16.00;99.90
16974;DHT22;8603;46.944;7.412;2023-10-19T08:55:08;16.10;99.90
16974;DHT22;8603;46.944;7.412;2023-10-19T08:57:39;16.70;99.90
16974;DHT22;8603;46.944;7.412;2023-10-19T09:00:05;17.10;99.90
16974;DHT22;8603;46.944;7.412;2023-10-19T09:02:32;17.20;99.90
16974;DHT22;8603;46.944;7.412;2023-10-19T09:04:58;17.30;99.90
16974;DHT22;8603;46.944;7.412;2023-10-19T09:07:25;17.40;99.90
16974;DHT22;8603;46.944;7.412;2023-10-19T09:09:59;17.50;99.90
16974;DHT22;8603;46.944;7.412;2023-10-19T09:12:25;17.40;99.90
16974;DHT22;8603;46.944;7.412;2023-10-19T09:15:14;17.40;99.90
16974;DHT22;8603;46.944;7.412;2023-10-19T09:21:21;17.90;99.90
16974;DHT22;8603;46.944;7.412;2023-10-19T09:23:59;18.40;99.90
16974;DHT22;8603;46.944;7.412;2023-10-19T09:33:27;19.60;99.90
16974;DHT22;8603;46.944;7.412;2023-10-19T09:35:55;19.60;99.90
16974;DHT22;8603;46.944;7.412;2023-10-19T09:38:26;19.50;99.90
16974;DHT22;8603;46.944;7.412;2023-10-19T09:40:55;19.60;99.90
16974;DHT22;8603;46.944;7.412;2023-10-19T09:43:44;19.60;99.90
16974;DHT22;8603;46.944;7.412;2023-10-19T09:46:24;19.60;99.90
16974;DHT22;8603;46.944;7.412;2023-10-19T09:48:57;19.50;99.90
16974;DHT22;8603;46.944;7.412;2023-10-19T09:51:24;19.30;99.90
16974;DHT22;8603;46.944;7.412;2023-10-19T09:54:19;19.00;99.90
16974;DHT22;8603;46.944;7.412;2023-10-19T10:00:23;18.50;99.90
16974;DHT22;8603;46.944;7.412;2023-10-19T10:02:49;18.20;99.90
16974;DHT22;8603;46.944;7.412;2023-10-19T10:08:30;17.90;99.90
16974;DHT22;8603;46.944;7.412;2023-10-19T10:11:29;17.60;99.90
16974;DHT22;8603;46.944;7.412;2023-10-19T10:14:25;17.50;99.90
16974;DHT22;8603;46.944;7.412;2023-10-19T10:17:05;17.40;99.90
16974;DHT22;8603;46.944;7.412;2023-10-19T10:22:31;17.10;99.90
16974;DHT22;8603;46.944;7.412;2023-10-19T10:25:05;16.90;99.90
16974;DHT22;8603;46.944;7.412;2023-10-19T10:27:38;16.90;99.90
16974;DHT22;8603;46.944;7.412;2023-10-19T10:30:14;16.90;99.90
16974;DHT22;8603;46.944;7.412;2023-10-19T10:33:13;16.70;99.90
16974;DHT22;8603;46.944;7.412;2023-10-19T10:36:11;16.80;99.90
16974;DHT22;8603;46.944;7.412;2023-10-19T10:42:33;17.30;99.90
16974;DHT22;8603;46.944;7.412;2023-10-19T10:45:36;17.70;99.90
16974;DHT22;8603;46.944;7.412;2023-10-19T10:51:36;18.20;99.90
16974;DHT22;8603;46.944;7.412;2023-10-19T10:54:21;18.50;99.90
16974;DHT22;8603;46.944;7.412;2023-10-19T10:57:00;18.70;99.90
16974;DHT22;8603;46.944;7.412;2023-10-19T10:59:44;19.10;99.90
16974;DHT22;8603;46.944;7.412;2023-10-19T11:05:55;19.10;99.90
16974;DHT22;8603;46.944;7.412;2023-10-19T11:08:24;18.90;99.90
16974;DHT22;8603;46.944;7.412;2023-10-19T11:11:09;18.60;99.90
16974;DHT22;8603;46.944;7.412;2023-10-19T11:13:39;18.40;99.90
16974;DHT22;8603;46.944;7.412;2023-10-19T11:16:08;18.30;99.90
16974;DHT22;8603;46.944;7.412;2023-10-19T11:18:39;18.30;99.90
16974;DHT22;8603;46.944;7.412;2023-10-19T11:21:13;18.30;99.90
16974;DHT22;8603;46.944;7.412;2023-10-19T11:23:52;18.40;99.90
16974;DHT22;8603;46.944;7.412;2023-10-19T11:26:21;18.40;99.90
16974;DHT22;8603;46.944;7.412;2023-10-19T11:28:47;18.40;99.90
16974;DHT22;8603;46.944;7.412;2023-10-19T11:31:22;18.40;99.90
16974;DHT22;8603;46.944;7.412;2023-10-19T11:33:50;18.50;99.90
16974;DHT22;8603;46.944;7.412;2023-10-19T11:36:17;18.60;99.90
16974;DHT22;8603;46.944;7.412;2023-10-19T11:38:45;18.80;99.90
16974;DHT22;8603;46.944;7.412;2023-10-19T11:44:15;19.00;99.90
16974;DHT22;8603;46.944;7.412;2023-10-19T11:46:41;18.90;99.90
16974;DHT22;8603;46.944;7.412;2023-10-19T11:49:06;18.90;99.90
16974;DHT22;8603;46.944;7.412;2023-10-19T11:51:34;18.80;99.90
16974;DHT22;8603;46.944;7.412;2023-10-19T11:54:00;18.70;99.90
16974;DHT22;8603;46.944;7.412;2023-10-19T11:56:26;18.60;99.90
16974;DHT22;8603;46.944;7.412;2023-10-19T11:58:54;18.60;99.90
16974;DHT22;8603;46.944;7.412;2023-10-19T12:01:19;18.60;99.90
16974;DHT22;8603;46.944;7.412;2023-10-19T12:03:45;18.60;99.90
16974;DHT22;8603;46.944;7.412;2023-10-19T12:06:12;18.70;99.90
16974;DHT22;8603;46.944;7.412;2023-10-19T12:08:39;19.00;99.90
16974;DHT22;8603;46.944;7.412;2023-10-19T12:11:07;19.40;99.90
16974;DHT22;8603;46.944;7.412;2023-10-19T12:13:53;19.50;99.90
16974;DHT22;8603;46.944;7.412;2023-10-19T12:16:19;19.50;99.90
16974;DHT22;8603;46.944;7.412;2023-10-19T12:18:47;19.50;99.90
16974;DHT22;8603;46.944;7.412;2023-10-19T12:21:17;19.50;99.90
16974;DHT22;8603;46.944;7.412;2023-10-19T12:23:44;19.40;99.90
16974;DHT22;8603;46.944;7.412;2023-10-19T12:26:10;19.40;99.90
16974;DHT22;8603;46.944;7.412;2023-10-19T12:28:39;19.40;99.90
16974;DHT22;8603;46.944;7.412;2023-10-19T12:31:06;19.40;99.90
16974;DHT22;8603;46.944;7.412;2023-10-19T12:33:37;19.40;99.90
16974;DHT22;8603;46.944;7.412;2023-10-19T12:36:04;19.40;99.90
16974;DHT22;8603;46.944;7.412;2023-10-19T12:38:50;19.40;99.90
16974;DHT22;8603;46.944;7.412;2023-10-19T12:41:16;19.50;99.90
16974;DHT22;8603;46.944;7.412;2023-10-19T12:43:43;19.60;99.90
16974;DHT22;8603;46.944;7.412;2023-10-19T12:46:09;19.50;99.90
16974;DHT22;8603;46.944;7.412;2023-10-19T12:48:35;19.50;99.90
16974;DHT22;8603;46.944;7.412;2023-10-19T12:51:01;19.40;99.90
16974;DHT22;8603;46.944;7.412;2023-10-19T12:53:27;19.40;99.90
16974;DHT22;8603;46.944;7.412;2023-10-19T12:55:53;19.40;99.90
16974;DHT22;8603;46.944;7.412;2023-10-19T12:58:18;19.40;99.90
16974;DHT22;8603;46.944;7.412;2023-10-19T13:00:47;19.50;99.90
16974;DHT22;8603;46.944;7.412;2023-10-19T13:03:14;19.60;99.90
16974;DHT22;8603;46.944;7.412;2023-10-19T13:05:42;19.70;99.90
16974;DHT22;8603;46.944;7.412;2023-10-19T13:08:10;19.70;99.90
16974;DHT22;8603;46.944;7.412;2023-10-19T13:10:39;19.70;99.90
16974;DHT22;8603;46.944;7.412;2023-10-19T13:13:08;19.70;99.90
16974;DHT22;8603;46.944;7.412;2023-10-19T13:15:37;19.50;99.90
16974;DHT22;8603;46.944;7.412;2023-10-19T13:18:04;19.40;99.90
16974;DHT22;8603;46.944;7.412;2023-10-19T13:20:32;19.40;99.90
16974;DHT22;8603;46.944;7.412;2023-10-19T13:23:07;19.40;99.90
16974;DHT22;8603;46.944;7.412;2023-10-19T13:25:37;19.50;99.90
16974;DHT22;8603;46.944;7.412;2023-10-19T13:28:27;19.60;99.90
16974;DHT22;8603;46.944;7.412;2023-10-19T13:30:53;19.60;99.90
16974;DHT22;8603;46.944;7.412;2023-10-19T13:33:19;19.70;99.90
16974;DHT22;8603;46.944;7.412;2023-10-19T13:35:49;19.60;99.90
16974;DHT22;8603;46.944;7.412;2023-10-19T13:38:16;19.60;99.90
16974;DHT22;8603;46.944;7.412;2023-10-19T13:40:43;19.40;99.90
16974;DHT22;8603;46.944;7.412;2023-10-19T13:43:12;19.20;99.90
16974;DHT22;8603;46.944;7.412;2023-10-19T13:45:42;19.10;99.90
16974;DHT22;8603;46.944;7.412;2023-10-19T13:48:11;19.00;99.90
16974;DHT22;8603;46.944;7.412;2023-10-19T13:50:42;18.90;99.90
16974;DHT22;8603;46.944;7.412;2023-10-19T13:53:13;18.70;99.90
16974;DHT22;8603;46.944;7.412;2023-10-19T13:55:39;18.60;99.90
16974;DHT22;8603;46.944;7.412;2023-10-19T13:58:05;18.30;99.90
16974;DHT22;8603;46.944;7.412;2023-10-19T14:00:32;18.20;99.90
16974;DHT22;8603;46.944;7.412;2023-10-19T14:03:09;18.10;99.90
16974;DHT22;8603;46.944;7.412;2023-10-19T14:05:42;18.10;99.90
16974;DHT22;8603;46.944;7.412;2023-10-19T14:08:09;18.00;99.90
16974;DHT22;8603;46.944;7.412;2023-10-19T14:10:35;17.80;99.90
16974;DHT22;8603;46.944;7.412;2023-10-19T14:13:01;17.70;99.90
16974;DHT22;8603;46.944;7.412;2023-10-19T14:15:27;17.60;99.90
16974;DHT22;8603;46.944;7.412;2023-10-19T14:17:55;17.70;99.90
16974;DHT22;8603;46.944;7.412;2023-10-19T14:20:22;17.60;99.90
16974;DHT22;8603;46.944;7.412;2023-10-19T14:22:51;17.60;99.90
16974;DHT22;8603;46.944;7.412;2023-10-19T14:25:19;17.60;99.90
16974;DHT22;8603;46.944;7.412;2023-10-19T14:27:48;17.50;99.90
16974;DHT22;8603;46.944;7.412;2023-10-19T14:30:21;17.40;99.90
16974;DHT22;8603;46.944;7.412;2023-10-19T14:32:47;17.40;99.90
16974;DHT22;8603;46.944;7.412;2023-10-19T14:35:15;17.30;99.90
16974;DHT22;8603;46.944;7.412;2023-10-19T14:37:43;17.30;99.90
16974;DHT22;8603;46.944;7.412;2023-10-19T14:40:10;17.30;99.90
16974;DHT22;8603;46.944;7.412;2023-10-19T14:42:39;17.30;99.90
16974;DHT22;8603;46.944;7.412;2023-10-19T14:45:07;17.30;99.90
16974;DHT22;8603;46.944;7.412;2023-10-19T14:47:37;17.30;99.90
16974;DHT22;8603;46.944;7.412;2023-10-19T14:50:03;17.30;99.90
16974;DHT22;8603;46.944;7.412;2023-10-19T14:52:29;17.20;99.90
16974;DHT22;8603;46.944;7.412;2023-10-19T14:54:55;17.10;99.90
16974;DHT22;8603;46.944;7.412;2023-10-19T14:57:21;17.00;99.90
16974;DHT22;8603;46.944;7.412;2023-10-19T14:59:47;16.90;99.90
16974;DHT22;8603;46.944;7.412;2023-10-19T15:02:12;16.90;99.90
16974;DHT22;8603;46.944;7.412;2023-10-19T15:04:39;16.80;99.90
16974;DHT22;8603;46.944;7.412;2023-10-19T15:07:05;16.70;99.90
16974;DHT22;8603;46.944;7.412;2023-10-19T15:09:43;16.60;99.90
16974;DHT22;8603;46.944;7.412;2023-10-19T15:12:17;16.60;99.90
16974;DHT22;8603;46.944;7.412;2023-10-19T15:14:44;16.60;99.90
16974;DHT22;8603;46.944;7.412;2023-10-19T15:17:10;16.50;99.90
16974;DHT22;8603;46.944;7.412;2023-10-19T15:19:36;16.40;99.90
16974;DHT22;8603;46.944;7.412;2023-10-19T15:22:01;16.40;99.90
16974;DHT22;8603;46.944;7.412;2023-10-19T15:24:27;16.30;99.90
16974;DHT22;8603;46.944;7.412;2023-10-19T15:26:52;16.30;99.90
16974;DHT22;8603;46.944;7.412;2023-10-19T15:29:18;16.20;99.90
16974;DHT22;8603;46.944;7.412;2023-10-19T15:31:44;16.20;99.90
16974;DHT22;8603;46.944;7.412;2023-10-19T15:34:09;16.10;99.90
16974;DHT22;8603;46.944;7.412;2023-10-19T15:36:35;16.10;99.90
16974;DHT22;8603;46.944;7.412;2023-10-19T15:39:01;16.00;99.90
16974;DHT22;8603;46.944;7.412;2023-10-19T15:41:40;16.00;99.90
16974;DHT22;8603;46.944;7.412;2023-10-19T15:44:08;16.00;99.90
16974;DHT22;8603;46.944;7.412;2023-10-19T15:46:37;15.90;99.90
16974;DHT22;8603;46.944;7.412;2023-10-19T15:49:05;16.00;99.90
16974;DHT22;8603;46.944;7.412;2023-10-19T15:51:34;15.90;99.90
16974;DHT22;8603;46.944;7.412;2023-10-19T15:54:00;15.90;99.90
16974;DHT22;8603;46.944;7.412;2023-10-19T15:56:27;15.90;99.90
16974;DHT22;8603;46.944;7.412;2023-10-19T15:58:54;15.90;99.90
16974;DHT22;8603;46.944;7.412;2023-10-19T16:01:20;15.80;99.90
16974;DHT22;8603;46.944;7.412;2023-10-19T16:03:45;15.80;99.90
16974;DHT22;8603;46.944;7.412;2023-10-19T16:06:11;15.80;99.90
16974;DHT22;8603;46.944;7.412;2023-10-19T16:08:37;15.80;99.90
16974;DHT22;8603;46.944;7.412;2023-10-19T16:11:05;15.70;99.90
16974;DHT22;8603;46.944;7.412;2023-10-19T16:13:32;15.70;99.90
16974;DHT22;8603;46.944;7.412;2023-10-19T16:16:01;15.70;99.90
16974;DHT22;8603;46.944;7.412;2023-10-19T16:18:26;15.60;99.90
16974;DHT22;8603;46.944;7.412;2023-10-19T16:20:52;15.60;99.90
16974;DHT22;8603;46.944;7.412;2023-10-19T16:23:18;15.60;99.90
16974;DHT22;8603;46.944;7.412;2023-10-19T16:25:44;15.60;99.90
16974;DHT22;8603;46.944;7.412;2023-10-19T16:28:09;15.60;99.90
16974;DHT22;8603;46.944;7.412;2023-10-19T16:31:01;15.60;99.90
16974;DHT22;8603;46.944;7.412;2023-10-19T16:33:32;15.50;99.90
16974;DHT22;8603;46.944;7.412;2023-10-19T16:36:31;15.50;99.90
16974;DHT22;8603;46.944;7.412;2023-10-19T16:39:03;15.50;99.90
16974;DHT22;8603;46.944;7.412;2023-10-19T16:41:53;15.40;99.90
16974;DHT22;8603;46.944;7.412;2023-10-19T16:44:20;15.40;99.90
16974;DHT22;8603;46.944;7.412;2023-10-19T16:46:46;15.40;99.90
16974;DHT22;8603;46.944;7.412;2023-10-19T16:49:17;15.40;99.90
16974;DHT22;8603;46.944;7.412;2023-10-19T16:51:50;15.40;99.90
16974;DHT22;8603;46.944;7.412;2023-10-19T16:54:22;15.30;99.90
16974;DHT22;8603;46.944;7.412;2023-10-19T16:57:10;15.30;99.90
16974;DHT22;8603;46.944;7.412;2023-10-19T17:00:06;15.30;99.90
16974;DHT22;8603;46.944;7.412;2023-10-19T17:02:56;15.20;99.90
16974;DHT22;8603;46.944;7.412;2023-10-19T17:05:52;15.30;99.90
16974;DHT22;8603;46.944;7.412;2023-10-19T17:08:49;15.30;99.90
16974;DHT22;8603;46.944;7.412;2023-10-19T17:22:14;15.30;99.90
16974;DHT22;8603;46.944;7.412;2023-10-19T17:25:04;15.20;99.90
16974;DHT22;8603;46.944;7.412;2023-10-19T17:27:59;15.10;99.90
16974;DHT22;8603;46.944;7.412;2023-10-19T17:30:40;15.00;99.90
16974;DHT22;8603;46.944;7.412;2023-10-19T17:33:38;15.00;99.90
16974;DHT22;8603;46.944;7.412;2023-10-19T17:39:08;14.80;99.90
16974;DHT22;8603;46.944;7.412;2023-10-19T17:45:23;14.80;99.90
16974;DHT22;8603;46.944;7.412;2023-10-19T17:48:48;14.80;99.90
16974;DHT22;8603;46.944;7.412;2023-10-19T17:51:21;14.70;99.90
16974;DHT22;8603;46.944;7.412;2023-10-19T17:53:50;14.60;99.90
16974;DHT22;8603;46.944;7.412;2023-10-19T17:56:18;14.60;99.90
16974;DHT22;8603;46.944;7.412;2023-10-19T17:59:04;14.50;99.90
16974;DHT22;8603;46.944;7.412;2023-10-19T19:52:21;13.90;99.90
16974;DHT22;8603;46.944;7.412;2023-10-19T19:54:47;14.00;99.90
16974;DHT22;8603;46.944;7.412;2023-10-19T19:57:12;14.00;99.90
16974;DHT22;8603;46.944;7.412;2023-10-19T19:59:38;14.00;99.90
16974;DHT22;8603;46.944;7.412;2023-10-19T20:02:04;14.00;99.90
16974;DHT22;8603;46.944;7.412;2023-10-19T20:04:29;14.00;99.90
16974;DHT22;8603;46.944;7.412;2023-10-19T20:06:58;14.00;99.90
16974;DHT22;8603;46.944;7.412;2023-10-19T20:09:23;14.10;99.90
16974;DHT22;8603;46.944;7.412;2023-10-19T20:11:51;14.10;99.90
16974;DHT22;8603;46.944;7.412;2023-10-19T20:14:23;14.20;99.90
16974;DHT22;8603;46.944;7.412;2023-10-19T20:21:27;14.10;99.90
16974;DHT22;8603;46.944;7.412;2023-10-19T20:24:58;14.10;99.90
16974;DHT22;8603;46.944;7.412;2023-10-19T20:27:49;14.10;99.90
16974;DHT22;8603;46.944;7.412;2023-10-19T20:44:32;14.10;99.90
16974;DHT22;8603;46.944;7.412;2023-10-19T20:47:58;14.10;99.90
16974;DHT22;8603;46.944;7.412;2023-10-19T20:51:02;14.10;99.90
16974;DHT22;8603;46.944;7.412;2023-10-19T20:53:50;14.10;99.90
16974;DHT22;8603;46.944;7.412;2023-10-19T20:56:26;14.10;99.90
16974;DHT22;8603;46.944;7.412;2023-10-19T20:59:21;14.10;99.90
16974;DHT22;8603;46.944;7.412;2023-10-19T21:01:47;14.10;99.90
16974;DHT22;8603;46.944;7.412;2023-10-19T21:04:13;14.30;99.90
16974;DHT22;8603;46.944;7.412;2023-10-19T21:06:55;14.30;99.90
16974;DHT22;8603;46.944;7.412;2023-10-19T21:09:51;14.30;99.90
16974;DHT22;8603;46.944;7.412;2023-10-19T21:13:12;14.30;99.90
16974;DHT22;8603;46.944;7.412;2023-10-19T21:15:55;14.40;99.90
16974;DHT22;8603;46.944;7.412;2023-10-19T21:18:59;14.40;99.90
16974;DHT22;8603;46.944;7.412;2023-10-19T21:22:04;14.40;99.90
16974;DHT22;8603;46.944;7.412;2023-10-19T21:24:30;14.40;99.90
16974;DHT22;8603;46.944;7.412;2023-10-19T21:26:58;14.40;99.90
16974;DHT22;8603;46.944;7.412;2023-10-19T21:32:24;14.40;99.90
16974;DHT22;8603;46.944;7.412;2023-10-19T21:35:14;14.40;99.90
16974;DHT22;8603;46.944;7.412;2023-10-19T21:41:49;14.40;99.90
16974;DHT22;8603;46.944;7.412;2023-10-19T21:44:21;14.50;99.90
16974;DHT22;8603;46.944;7.412;2023-10-19T22:00:53;14.30;99.90